»·PEaware :: N825PD KAVQ-KBXK

N825PD :: KAVQ-KBXK

FLIGHT INFORMATION

Flight Status: Arrived
Operator: Privately registered:
United States
More flights under this callsign
Pilot: Bernie F. (31340)
Aircraft: CESSNA 172 SKYHAWK
(C172)
More flights by this aircraft type
Origin: KAVQ Marana Northwest Regl
United States
Destination: KBXK Buckeye Mun
United States
More flights between these airports :: More routes between these airports
Route: TFD
File this flight plan on PilotEdge
Remarks:
Altitude:
(Current/Filed)
4,500ft
Speed:
(Current/Filed)
110kts
Departed: 23-Sep-20 09:06 AM
Arrived: 23-Sep-20 10:03 AM
Distance/Time
Traveled:
96nm/0:57
Distance/Time
To Go:
Arrived

Flight Plot

Page will automatically refresh every two minutes.

Flight plan parsing failed; only flown route is shown


Map Options




Map Legend


Flown Route
Filed Route
Departure Airport
Arrival Airport
Navaid (VOR, NDB)
Fix

Horizontal Profiles

Position Reports

Time Latitude Longitude Heading Altitude Ground
Speed
23-Sep-20 08:59 32.406206 -111.215522 335 2028ft 0kts
23-Sep-20 09:00 32.406206 -111.215522 335 2028ft 0kts
23-Sep-20 09:01 32.406206 -111.215522 335 2028ft 0kts
23-Sep-20 09:01 32.406206 -111.215522 335 2028ft 0kts
23-Sep-20 09:03 32.406342 -111.215379 102 2028ft 6kts
23-Sep-20 09:04 32.404378 -111.212629 136 2032ft 14kts
23-Sep-20 09:04 32.403650 -111.211350 48 2034ft 0kts
23-Sep-20 09:05 32.408476 -111.215651 314 2029ft 77kts
23-Sep-20 09:07 32.428586 -111.239232 311 2586ft 90kts
23-Sep-20 09:07 32.442429 -111.257688 311 3007ft 88kts
23-Sep-20 09:08 32.458074 -111.279308 310 3502ft 85kts
23-Sep-20 09:09 32.473085 -111.300192 310 4010ft 82kts
23-Sep-20 09:10 32.487616 -111.320423 310 4473ft 79kts
23-Sep-20 09:11 32.504290 -111.343686 310 4526ft 102kts
23-Sep-20 09:12 32.523376 -111.370143 310 4525ft 106kts
23-Sep-20 09:13 32.542694 -111.396777 310 4525ft 107kts
23-Sep-20 09:14 32.562160 -111.423544 310 4523ft 106kts
23-Sep-20 09:15 32.581569 -111.450192 310 4522ft 106kts
23-Sep-20 09:16 32.600990 -111.476820 310 4523ft 107kts
23-Sep-20 09:17 32.620417 -111.503481 310 4521ft 107kts
23-Sep-20 09:18 32.639939 -111.530232 310 4520ft 106kts
23-Sep-20 09:19 32.659059 -111.557181 309 4518ft 107kts
23-Sep-20 09:20 32.678082 -111.584312 309 4519ft 107kts
23-Sep-20 09:21 32.697220 -111.611648 309 4516ft 107kts
23-Sep-20 09:22 32.716052 -111.639269 308 4517ft 107kts
23-Sep-20 09:23 32.734777 -111.666984 308 4516ft 107kts
23-Sep-20 09:24 32.753504 -111.694714 308 4516ft 107kts
23-Sep-20 09:25 32.772169 -111.722353 308 4517ft 107kts
23-Sep-20 09:26 32.790956 -111.750137 308 4521ft 107kts
23-Sep-20 09:27 32.809933 -111.778100 308 4531ft 109kts
23-Sep-20 09:28 32.829151 -111.806351 309 4528ft 109kts
23-Sep-20 09:29 32.848236 -111.834437 308 4527ft 108kts
23-Sep-20 09:30 32.865137 -111.864003 302 4527ft 107kts
23-Sep-20 09:31 32.881383 -111.894117 302 4526ft 108kts
23-Sep-20 09:32 32.898982 -111.922921 311 4527ft 108kts
23-Sep-20 09:33 32.918765 -111.949994 311 4524ft 108kts
23-Sep-20 09:34 32.938540 -111.977163 310 4525ft 108kts
23-Sep-20 09:35 32.958227 -112.004277 311 4524ft 108kts
23-Sep-20 09:36 32.978023 -112.031505 311 4522ft 108kts
23-Sep-20 09:37 32.997819 -112.058704 311 4523ft 108kts
23-Sep-20 09:38 33.017491 -112.085838 311 4521ft 108kts
23-Sep-20 09:39 33.037166 -112.113050 311 4520ft 108kts
23-Sep-20 09:40 33.056755 -112.140158 311 4521ft 108kts
23-Sep-20 09:41 33.076383 -112.167351 311 4520ft 107kts
23-Sep-20 09:42 33.095853 -112.194310 310 4517ft 107kts
23-Sep-20 09:43 33.115241 -112.221175 311 4513ft 107kts
23-Sep-20 09:44 33.134697 -112.248138 311 4518ft 108kts
23-Sep-20 09:45 33.155071 -112.276169 311 4274ft 120kts
23-Sep-20 09:46 33.177758 -112.307080 311 3769ft 124kts
23-Sep-20 09:47 33.200726 -112.338216 311 3273ft 125kts
23-Sep-20 09:48 33.223689 -112.369364 311 2842ft 120kts
23-Sep-20 09:49 33.244747 -112.397937 311 2816ft 112kts
23-Sep-20 09:50 33.265237 -112.425650 311 2817ft 110kts
23-Sep-20 09:51 33.285193 -112.453705 306 2818ft 111kts
23-Sep-20 09:52 33.303560 -112.483472 305 2814ft 110kts
23-Sep-20 09:53 33.321865 -112.513087 306 2795ft 112kts
23-Sep-20 09:54 33.341647 -112.545939 304 2283ft 124kts
23-Sep-20 09:55 33.360577 -112.579089 304 2020ft 111kts
23-Sep-20 09:56 33.376900 -112.607997 303 2019ft 101kts
23-Sep-20 09:57 33.392162 -112.635781 303 2017ft 99kts
23-Sep-20 09:58 33.408438 -112.663205 309 2010ft 98kts
23-Sep-20 09:59 33.420876 -112.688983 281 1866ft 97kts
23-Sep-20 10:00 33.442052 -112.696655 1 1754ft 81kts
23-Sep-20 10:01 33.438917 -112.685302 189 1284ft 71kts
23-Sep-20 10:02 33.423873 -112.685960 108 1022ft 14kts
23-Sep-20 10:03 33.425503 -112.684810 181 1025ft 12kts
23-Sep-20 10:04 33.420546 -112.684188 175 1013ft 10kts
23-Sep-20 10:05 33.420363 -112.684073 98 1012ft 0kts
23-Sep-20 10:06 33.420363 -112.684073 98 1012ft 0kts
23-Sep-20 10:07 33.420363 -112.684073 98 1012ft 0kts
23-Sep-20 10:08 33.420363 -112.684073 98 1012ft 0kts
23-Sep-20 10:09 33.420363 -112.684073 98 1012ft 0kts
23-Sep-20 10:10 33.420363 -112.684073 98 1012ft 0kts
23-Sep-20 10:11 33.420363 -112.684073 98 1012ft 0kts
23-Sep-20 10:12 33.420363 -112.684073 98 1012ft 0kts
23-Sep-20 10:13 33.420363 -112.684073 98 1012ft 0kts
23-Sep-20 10:14 33.420363 -112.684073 98 1012ft 0kts
23-Sep-20 10:15 33.420363 -112.684073 98 1012ft 0kts
23-Sep-20 10:16 33.420363 -112.684073 98 1012ft 0kts

Navigation Log

Ident Type
Flight plan parsing failed, navigation log unavailable